Etusivu
METAR-TAF:

METAR-TAF

Lentoasemat :

Šeremetjevon kansainvälinen lentoasema

Moskova-Šeremetjevo, Venäjä

Leveyspiiri: 55-58N, Pituuspiiri: 037-25E, korkeus merenpinnasta: 190 m

Tämänhetkinen sää

Tämä raportti tehtiin 39 minuuttia sitten, kello 14.00 UTC
Tuuli 10 kn lounaasta
Lämpötila 16°C
Kosteus 48%
Ilmanpaine 1023 hPa
Näkyvyys 10 km tai enemmän
ei pilviä alle 1500 m:ssä eikä cumulonimbus-pilviä

METAR: UUEE 161400Z 22005MPS CAVOK 16/05 Q1023 R24L/CLRD62 R24C/CLRD62 NOSIG

Aika: 17:39 (14:39 UTC)

Sääennuste

Tämä raportti tehtiin 3 tuntia ja 42 minuuttia sitten, kello 10.57 UTC
Ennuste voimassa 16. päivästä klo 12 UTC - 17. päivään klo 12 UTC
Tuuli 12 kn lännestä/lounaasta
Näkyvyys 10 km tai enemmän
Hajanaisia pilviä 3000 ft:n korkeudessa
Tulossa
17. päivästä klo 04 UTC - 17. päivään klo 06 UTC
Tuuli 2 kn eri suunnista

TAF: UUEE 161057Z 1612/1712 24006MPS 9999 SCT030 TX17/1612Z TN04/1703Z BECMG 1704/1706 VRB01MPS

Säähavainnot ja -ennusteet yli 4000 lentoasemalta (METAR- ja TAF-raportit).

Käytössä olevat sääasemat on merkitty karttaan keltaisilla ja punaisilla pisteillä.

Aseta hiiri pisteen päälle nähdäksesi sääaseman nimen.

Klikkaa sitten nähdäksesi säähavainnot ja -ennusteet.

Kartan vaihtaminen: klikkaa mustalla rastilla varustettuja vihreitä pisteitä, niin voit zoomata sisään; viivalla varustettua vihreää pistettä, niin voit zoomata ulos tai vihreitä nuolia, niin pääset viereisille kartoille.


METAR-TAF: